Time;durP1;ratioP1;P1;durP2;ratioP2;P2;SDS_P1;SDS_P2;PMS_P1;PMS_P2;Temp;Humidity;BMP_temperature;BMP_pressure;BME280_temperature;BME280_humidity;BME280_pressure;Samples;Min_cycle;Max_cycle;Signal;HPM_P1;HPM_P2
2023/10/07 00:02:30;;;;;;;20.40;9.68;;;;;;;20.87;100.00;101396.13;20994129;28;20135;-71
2023/10/07 00:12:56;;;;;;;23.73;10.20;;;;;;;20.91;100.00;101401.41;20949384;28;20080;-71
2023/10/07 00:23:22;;;;;;;30.30;11.27;;;;;;;20.91;100.00;101400.53;20973923;28;20048;-70
2023/10/07 00:33:50;;;;;;;23.52;9.70;;;;;;;20.87;100.00;101390.75;20965347;28;20055;-70
2023/10/07 00:44:22;;;;;;;22.02;10.00;;;;;;;20.83;100.00;101389.91;20976065;28;20051;-71
2023/10/07 00:54:57;;;;;;;22.25;10.48;;;;;;;20.74;100.00;101392.75;20949379;28;20207;-71
2023/10/07 01:05:26;;;;;;;23.30;9.43;;;;;;;20.70;100.00;101385.66;20972798;28;20052;-71
2023/10/07 01:15:51;;;;;;;20.60;10.43;;;;;;;20.68;100.00;101372.25;20994289;28;20056;-71
2023/10/07 01:26:21;;;;;;;21.95;9.75;;;;;;;20.57;100.00;101373.34;20976448;28;20563;-71
2023/10/07 01:36:45;;;;;;;21.50;9.52;;;;;;;20.52;100.00;101368.06;20987206;28;20064;-71
2023/10/07 01:47:23;;;;;;;20.45;9.55;;;;;;;20.59;100.00;101355.44;20990909;28;20055;-71
2023/10/07 01:57:45;;;;;;;21.37;9.80;;;;;;;20.53;100.00;101351.06;20970134;28;20044;-71
2023/10/07 02:08:13;;;;;;;23.17;10.20;;;;;;;20.48;100.00;101354.72;20971986;28;20048;-70
2023/10/07 02:18:37;;;;;;;21.70;10.45;;;;;;;20.44;100.00;101359.22;20969738;28;20496;-70
2023/10/07 02:29:07;;;;;;;22.33;10.98;;;;;;;20.39;100.00;101358.41;20983063;28;20048;-70
2023/10/07 02:39:45;;;;;;;22.38;10.65;;;;;;;20.38;100.00;101353.97;20951368;28;20037;-71
2023/10/07 02:50:10;;;;;;;22.73;11.05;;;;;;;20.30;100.00;101340.63;20972027;28;20051;-71
2023/10/07 03:00:39;;;;;;;27.08;12.27;;;;;;;20.30;100.00;101337.06;20967793;28;20044;-71
2023/10/07 03:11:09;;;;;;;22.70;11.23;;;;;;;20.30;100.00;101331.69;20971521;28;20049;-71
2023/10/07 03:21:42;;;;;;;24.95;11.32;;;;;;;20.29;100.00;101343.31;20958921;28;20037;-71
2023/10/07 03:32:13;;;;;;;22.55;11.13;;;;;;;20.25;100.00;101341.59;20965949;28;20056;-71
2023/10/07 03:42:37;;;;;;;24.17;10.77;;;;;;;20.19;100.00;101337.22;20973350;28;20062;-71
2023/10/07 03:53:03;;;;;;;23.50;10.65;;;;;;;20.17;100.00;101346.19;20965795;28;20551;-71
2023/10/07 04:03:25;;;;;;;23.95;12.38;;;;;;;20.21;100.00;101332.75;20958074;28;20064;-71
2023/10/07 04:13:53;;;;;;;28.55;11.55;;;;;;;20.22;100.00;101353.25;20952983;28;20147;-71
2023/10/07 04:24:16;;;;;;;22.60;10.02;;;;;;;20.30;100.00;101354.03;20989004;28;20060;-70
2023/10/07 04:35:00;;;;;;;24.25;10.95;;;;;;;20.39;100.00;101363.78;20979626;28;20594;-70
2023/10/07 04:45:35;;;;;;;23.08;11.15;;;;;;;20.46;100.00;101376.19;20954699;28;20049;-70
2023/10/07 04:56:01;;;;;;;23.05;10.55;;;;;;;20.62;100.00;101391.13;20978254;28;20064;-70
2023/10/07 05:06:24;;;;;;;21.70;10.57;;;;;;;20.80;100.00;101402.50;20955147;28;20516;-71
2023/10/07 05:16:49;;;;;;;23.23;10.98;;;;;;;20.95;100.00;101408.47;20955325;28;20045;-70
2023/10/07 05:27:12;;;;;;;24.80;10.50;;;;;;;21.12;100.00;101426.13;20942771;28;20463;-70
2023/10/07 05:37:37;;;;;;;21.98;9.93;;;;;;;21.38;100.00;101424.78;20965921;28;20082;-70
2023/10/07 05:48:01;;;;;;;20.63;9.45;;;;;;;21.56;100.00;101428.03;20971107;28;20064;-70
2023/10/07 05:58:25;;;;;;;27.50;10.27;;;;;;;21.86;100.00;101432.78;20977705;28;20075;-71
2023/10/07 06:08:48;;;;;;;22.35;10.15;;;;;;;22.03;100.00;101452.22;20961511;28;20072;-70
2023/10/07 06:19:13;;;;;;;21.40;10.00;;;;;;;22.04;100.00;101459.38;21003406;28;20131;-71
2023/10/07 06:29:36;;;;;;;19.58;9.40;;;;;;;22.16;100.00;101464.50;20979557;28;20052;-70
2023/10/07 06:40:12;;;;;;;20.15;9.00;;;;;;;22.42;100.00;101468.44;20980197;28;20052;-71
2023/10/07 06:50:35;;;;;;;22.02;10.38;;;;;;;22.58;100.00;101467.16;20964473;28;20090;-72
2023/10/07 07:01:10;;;;;;;21.48;8.93;;;;;;;22.87;100.00;101474.59;20965738;28;20047;-70
2023/10/07 07:11:33;;;;;;;23.10;10.18;;;;;;;23.09;100.00;101477.69;20952426;28;20139;-71
2023/10/07 07:21:57;;;;;;;23.98;9.25;;;;;;;23.16;100.00;101482.88;20969127;28;20044;-71
2023/10/07 07:32:21;;;;;;;21.13;9.82;;;;;;;23.38;100.00;101489.47;20972380;28;20615;-71
2023/10/07 07:42:55;;;;;;;21.25;9.60;;;;;;;23.65;100.00;101495.09;21008195;28;20041;-71
2023/10/07 07:53:17;;;;;;;22.65;10.48;;;;;;;23.56;100.00;101496.25;20977849;28;20139;-71
2023/10/07 08:03:41;;;;;;;21.92;9.98;;;;;;;24.71;100.00;101493.88;20973625;28;20052;-71
2023/10/07 08:14:09;;;;;;;21.38;9.65;;;;;;;25.47;100.00;101494.13;20996797;28;20574;-71
2023/10/07 08:24:39;;;;;;;25.75;9.20;;;;;;;25.60;100.00;101487.38;20962113;28;20478;-72
2023/10/07 08:35:03;;;;;;;24.13;10.27;;;;;;;25.80;100.00;101495.66;20982489;28;20048;-71
2023/10/07 08:45:32;;;;;;;19.10;9.48;;;;;;;26.04;100.00;101477.66;20962609;28;20048;-71
2023/10/07 08:55:57;;;;;;;24.75;10.05;;;;;;;25.62;100.00;101488.19;20934302;28;20048;-71
2023/10/07 09:06:27;;;;;;;22.00;10.00;;;;;;;25.94;100.00;101492.44;20974838;28;20060;-71
2023/10/07 09:16:49;;;;;;;21.60;9.40;;;;;;;25.96;100.00;101491.47;20948480;28;20048;-71
2023/10/07 09:27:14;;;;;;;21.60;8.55;;;;;;;26.02;100.00;101498.47;20973860;28;20131;-71
2023/10/07 09:37:38;;;;;;;23.95;10.00;;;;;;;26.13;100.00;101483.59;20957396;28;20053;-71
2023/10/07 09:48:05;;;;;;;20.00;8.60;;;;;;;26.53;100.00;101476.69;20984717;28;20072;-71
2023/10/07 09:58:47;;;;;;;22.48;9.02;;;;;;;27.58;100.00;101458.81;20982654;28;20050;-71
2023/10/07 10:09:14;;;;;;;19.17;9.27;;;;;;;28.21;100.00;101474.09;20973065;28;20048;-72
2023/10/07 10:19:47;;;;;;;19.45;8.85;;;;;;;28.63;97.15;101467.56;20976916;28;20049;-71
2023/10/07 10:30:22;;;;;;;21.27;9.93;;;;;;;28.41;90.15;101457.75;20980977;28;20051;-71
2023/10/07 10:40:47;;;;;;;20.83;9.35;;;;;;;28.59;87.88;101455.09;20974560;28;20055;-70
2023/10/07 10:51:12;;;;;;;19.95;9.35;;;;;;;28.33;86.86;101449.06;20993793;28;20072;-71
2023/10/07 11:01:39;;;;;;;20.35;9.30;;;;;;;28.20;83.98;101441.56;20965515;28;20068;-71
2023/10/07 11:12:09;;;;;;;23.35;9.25;;;;;;;28.26;83.05;101430.41;20974661;28;20059;-71
2023/10/07 11:22:38;;;;;;;21.55;9.90;;;;;;;28.10;79.61;101417.50;20979153;28;20051;-71
2023/10/07 11:33:15;;;;;;;24.92;10.43;;;;;;;27.85;81.17;101416.00;20975317;28;20059;-71
2023/10/07 11:43:44;;;;;;;20.48;10.75;;;;;;;27.90;78.37;101413.94;20970896;28;20484;-71
2023/10/07 11:54:09;;;;;;;23.17;9.98;;;;;;;27.95;80.50;101420.94;20959177;28;20062;-71
2023/10/07 12:04:33;;;;;;;21.90;11.05;;;;;;;27.47;84.33;101412.25;21002860;28;20057;-71
2023/10/07 12:15:00;;;;;;;22.02;9.65;;;;;;;27.22;85.12;101405.19;20975449;28;20133;-71
2023/10/07 12:25:23;;;;;;;23.40;9.38;;;;;;;27.25;86.89;101407.75;20965004;28;20052;-71
2023/10/07 12:35:48;;;;;;;20.92;10.00;;;;;;;27.02;87.36;101393.44;20944880;28;20048;-70
2023/10/07 12:46:10;;;;;;;23.05;9.98;;;;;;;26.98;88.72;101399.94;20972470;28;20052;-72
2023/10/07 12:56:36;;;;;;;18.85;9.18;;;;;;;26.86;89.11;101407.59;20975212;28;20397;-71
2023/10/07 13:07:03;;;;;;;26.10;9.88;;;;;;;26.75;90.41;101407.16;20976888;28;20040;-71
2023/10/07 13:17:28;;;;;;;21.38;9.90;;;;;;;26.50;88.93;101396.44;20978427;28;20063;-71
2023/10/07 13:27:51;;;;;;;19.80;10.60;;;;;;;26.37;91.32;101383.47;20973850;28;20052;-71
2023/10/07 13:38:15;;;;;;;23.85;10.50;;;;;;;26.13;93.62;101391.56;20984635;28;20083;-71
2023/10/07 13:48:38;;;;;;;23.48;10.98;;;;;;;25.87;95.16;101401.59;20974020;28;20102;-71
2023/10/07 13:59:05;;;;;;;24.95;12.05;;;;;;;25.70;96.79;101402.25;20989321;28;20833;-71
2023/10/07 14:09:29;;;;;;;23.13;10.50;;;;;;;25.53;98.67;101407.34;20986202;28;20106;-71
2023/10/07 14:19:56;;;;;;;22.15;10.80;;;;;;;25.30;99.39;101397.34;20990580;28;20117;-71
2023/10/07 14:30:18;;;;;;;23.58;10.63;;;;;;;25.04;99.96;101408.16;21002160;28;20558;-72
2023/10/07 14:40:46;;;;;;;25.55;10.88;;;;;;;24.82;100.00;101406.16;20973131;28;20056;-71
2023/10/07 14:51:09;;;;;;;26.47;11.40;;;;;;;24.62;100.00;101406.78;20937446;28;20045;-70
2023/10/07 15:01:34;;;;;;;24.67;12.10;;;;;;;24.50;100.00;101423.38;20969848;28;20066;-72
2023/10/07 15:11:58;;;;;;;23.30;11.52;;;;;;;24.30;100.00;101436.63;20980422;28;20050;-71
2023/10/07 15:22:22;;;;;;;29.33;11.77;;;;;;;24.10;100.00;101434.47;21004257;28;20416;-71
2023/10/07 15:32:45;;;;;;;24.05;12.32;;;;;;;23.91;100.00;101441.34;20958438;28;20048;-71
2023/10/07 15:43:11;;;;;;;26.27;11.70;;;;;;;23.71;100.00;101447.28;20983589;28;20612;-71
2023/10/07 15:53:34;;;;;;;24.20;10.85;;;;;;;23.49;100.00;101450.63;20977406;28;20485;-71
2023/10/07 16:03:58;;;;;;;23.58;11.30;;;;;;;23.32;100.00;101446.50;20929917;28;20052;-71
2023/10/07 16:14:21;;;;;;;26.38;11.57;;;;;;;23.18;100.00;101453.19;20953611;28;20060;-71
2023/10/07 16:24:47;;;;;;;29.85;12.05;;;;;;;23.03;100.00;101459.84;20969184;28;20091;-71
2023/10/07 16:35:10;;;;;;;25.45;12.50;;;;;;;22.87;100.00;101455.75;20944640;28;20106;-71
2023/10/07 16:45:36;;;;;;;27.75;13.57;;;;;;;22.75;100.00;101461.44;20976132;28;20059;-71
2023/10/07 16:55:59;;;;;;;25.58;12.43;;;;;;;22.61;100.00;101470.69;20940168;28;20057;-72
2023/10/07 17:06:24;;;;;;;25.60;12.98;;;;;;;22.55;100.00;101483.38;20953327;28;20043;-71
2023/10/07 17:16:46;;;;;;;27.98;13.13;;;;;;;22.39;100.00;101490.00;20989603;28;20400;-71
2023/10/07 17:27:11;;;;;;;28.75;12.98;;;;;;;22.26;100.00;101497.44;20970778;28;20060;-71
2023/10/07 17:37:34;;;;;;;26.88;11.93;;;;;;;22.17;100.00;101497.66;20996765;28;20063;-72
2023/10/07 17:47:59;;;;;;;23.92;13.35;;;;;;;22.15;100.00;101513.81;20974724;28;20049;-71
2023/10/07 17:58:22;;;;;;;32.92;18.05;;;;;;;22.10;100.00;101514.84;20988641;28;20044;-71
2023/10/07 18:08:46;;;;;;;38.35;18.90;;;;;;;22.03;100.00;101519.44;20980975;28;20143;-72
2023/10/07 18:19:10;;;;;;;27.15;13.00;;;;;;;21.89;100.00;101532.22;20980792;28;20548;-72
2023/10/07 18:29:34;;;;;;;24.20;13.02;;;;;;;21.82;100.00;101538.63;20977233;28;20049;-73
2023/10/07 18:39:56;;;;;;;27.15;14.20;;;;;;;21.73;100.00;101519.97;20954229;28;20042;-72
2023/10/07 18:50:21;;;;;;;26.85;13.10;;;;;;;21.69;100.00;101523.66;20957952;28;20129;-72
2023/10/07 19:00:43;;;;;;;25.80;12.48;;;;;;;21.64;100.00;101528.22;20984996;28;20147;-72
2023/10/07 19:11:09;;;;;;;24.15;13.10;;;;;;;21.56;100.00;101516.72;20957409;28;20048;-71
2023/10/07 19:21:32;;;;;;;24.65;12.85;;;;;;;21.42;100.00;101520.53;20936791;28;20041;-72
2023/10/07 19:31:57;;;;;;;22.27;12.43;;;;;;;21.28;100.00;101511.81;20966527;28;20088;-72
2023/10/07 19:42:20;;;;;;;27.10;12.57;;;;;;;21.26;100.00;101519.03;20939591;28;20048;-72
2023/10/07 19:52:44;;;;;;;26.48;12.75;;;;;;;21.18;100.00;101506.63;20950190;28;20044;-71
2023/10/07 20:03:07;;;;;;;26.08;12.80;;;;;;;21.10;100.00;101509.38;20970328;28;20057;-72
2023/10/07 20:13:32;;;;;;;25.85;13.88;;;;;;;21.02;100.00;101505.94;20962318;28;20055;-72
2023/10/07 20:23:54;;;;;;;27.33;13.35;;;;;;;20.93;100.00;101495.34;20979182;28;20049;-72
2023/10/07 20:34:18;;;;;;;25.48;13.65;;;;;;;20.89;100.00;101501.66;20949696;28;20037;-72
2023/10/07 20:44:41;;;;;;;23.88;12.77;;;;;;;20.85;100.00;101498.16;20963571;28;20040;-72
2023/10/07 20:55:06;;;;;;;25.48;13.40;;;;;;;20.80;100.00;101499.13;20972340;28;20484;-72
2023/10/07 21:05:29;;;;;;;25.98;13.75;;;;;;;20.70;100.00;101495.66;20938741;28;20056;-72
2023/10/07 21:15:56;;;;;;;26.45;14.20;;;;;;;20.54;100.00;101497.69;20969946;28;20076;-71
2023/10/07 21:26:21;;;;;;;29.95;14.70;;;;;;;20.42;100.00;101484.44;20975936;28;20048;-72
2023/10/07 21:36:46;;;;;;;27.38;14.70;;;;;;;20.30;100.00;101488.13;20992415;28;20106;-72
2023/10/07 21:47:08;;;;;;;25.30;14.10;;;;;;;20.12;100.00;101483.00;21014317;28;20072;-72
2023/10/07 21:57:33;;;;;;;25.35;13.25;;;;;;;19.98;100.00;101490.31;20932977;28;20427;-72
2023/10/07 22:07:56;;;;;;;25.85;13.15;;;;;;;19.81;100.00;101478.91;20968619;28;20665;-72
2023/10/07 22:18:23;;;;;;;24.50;13.88;;;;;;;19.78;100.00;101477.13;20952913;28;20048;-72
2023/10/07 22:28:45;;;;;;;23.08;13.63;;;;;;;19.64;100.00;101464.78;20964532;28;20048;-72
2023/10/07 22:39:19;;;;;;;23.92;14.15;;;;;;;19.46;100.00;101471.22;20945745;28;20548;-72
2023/10/07 22:49:45;;;;;;;23.00;13.05;;;;;;;19.31;100.00;101473.97;20951740;28;20091;-72
2023/10/07 23:00:18;;;;;;;24.27;13.63;;;;;;;19.09;100.00;101465.28;20959499;28;20045;-72
2023/10/07 23:10:41;;;;;;;28.27;14.27;;;;;;;19.16;100.00;101450.03;20966174;28;20072;-72
2023/10/07 23:21:18;;;;;;;28.63;15.15;;;;;;;19.15;100.00;101449.16;20964510;28;20052;-72
2023/10/07 23:31:42;;;;;;;27.50;14.07;;;;;;;19.08;100.00;101453.66;20953616;28;20088;-72
2023/10/07 23:42:11;;;;;;;26.45;14.27;;;;;;;18.97;100.00;101431.44;21002050;28;20039;-72
2023/10/07 23:52:37;;;;;;;;;;;;;;;19.00;100.00;101435.88;20970891;28;20048;-72
